15:02
Airports
History
Links
Donate
Help keep this website running!
PayPal
Bitcoin
This page is community maintained. The information is intended for PC simulator navigation or reference.
Always use approved charts for navigation.
SBMT
MARTE
MARTE (SBMT)
Sao Paulo, São Paulo, Brazil (2022)
(C)
Lat/Lng:23° 30' 32.83" S / 46° 38' 15.91" W
-23.50912 / -46.637754
Elevation:2368'ft / 722mMSL
ID / ICAO:SBMT
Runways:1
Longest:12-30
Asphalt 1,593m / 5,227ft
Controlled:Yes
METAR14:00 GMT 2017-11-20
Altimeter: 30.00
Visibility: 6.2 statute miles
Wind: 5 knots (from 090°)
Temp: 22°c / 72°f
Humidity: 73.3%

METAR: SBMT 201400Z 09005KT 050V120 9999 BKN015 OVC020 22/17 Q1016

(Powered by phpweather)
Airport Radio Frequencies
Ground: 121.6
Tower: 118.7
Approach: 119.8, 120.05, 129.5
Runway 12 / 30
Dimensions:1593.2 x 45.1m 5227' x 148'ft
Surface:Asphalt
Runway 12 [A]Runway 30 [B]
Heading:100°TH 280°TH
Lat:
Lng:
23° 30' 28.19"S
46° 38' 43.65"W
23° 30' 37.47"S
46° 37' 48.18"W
User Notes and Comments
23° 30' 32.83" S / 46° 38' 15.91" W
Distance To
Airport ID:
Nearby Airports
(C) Sao Paulo Congonhas 8.2 NM
SBSP ( WX ) S 188°
(C) Sao Paulo - Guarulhos 12.0 NM
SBGR ( WX ) ENE 63°
4 Nascimento I 23.2 NM
SDNI WSW 250°
4 Atibaia 26.6 NM
SDTB N
(C) Jundiai 29.8 NM
SBJD NW 319°
(U) Fazenda Vale Eldorado 34.9 NM
SDVH N
(U) Tres Marias 35.3 NM
SDWL NW 308°
VFR Chart
Flight Planning at SkyVector.com